Time;durP1;ratioP1;P1;durP2;ratioP2;P2;SDS_P1;SDS_P2;PMS_P1;PMS_P2;Temp;Humidity;BMP_temperature;BMP_pressure;BME280_temperature;BME280_humidity;BME280_pressure;Samples;Min_cycle;Max_cycle;Signal;HPM_P1;HPM_P2
2023/01/15 00:01:20;;;;;;;;;1.00;1.00;;;;;9.17;100.00;100419.56;5027124;28;49342;-73
2023/01/15 00:03:46;;;;;;;;;1.00;1.00;;;;;8.97;100.00;100373.72;5027835;28;49706;-70
2023/01/15 00:06:11;;;;;;;;;0.00;0.00;;;;;8.69;100.00;100326.91;5026839;28;50126;-69
2023/01/15 00:08:37;;;;;;;;;2.25;1.00;;;;;8.76;100.00;100357.56;5027685;28;49284;-72
2023/01/15 00:11:03;;;;;;;;;0.25;0.25;;;;;9.30;100.00;100435.53;5023652;28;57232;-72
2023/01/15 00:13:28;;;;;;;;;3.75;0.50;;;;;9.10;100.00;100401.06;5027915;28;49728;-73
2023/01/15 00:16:01;;;;;;;;;0.00;0.00;;;;;9.16;100.00;100428.25;5027213;28;49911;-74
2023/01/15 00:18:27;;;;;;;;;0.50;0.00;;;;;9.04;100.00;100407.03;5026906;28;49503;-68
2023/01/15 00:21:01;;;;;;;;;0.00;0.00;;;;;8.79;100.00;100360.28;5026075;28;49318;-72
2023/01/15 00:28:59;;;;;;;;;2.75;1.00;;;;;9.01;100.00;100400.88;5027184;28;49512;-74
2023/01/15 00:31:25;;;;;;;;;0.00;0.00;;;;;9.29;100.00;100452.97;5010089;28;49317;-72
2023/01/15 00:33:50;;;;;;;;;0.75;0.00;;;;;9.08;100.00;100431.59;5027847;28;49261;-69
2023/01/15 00:36:16;;;;;;;;;0.00;0.00;;;;;9.22;100.00;100450.19;5008426;28;52354;-71
2023/01/15 00:38:41;;;;;;;;;2.75;0.00;;;;;9.20;100.00;100444.94;5024418;28;49690;-72
2023/01/15 00:41:07;;;;;;;;;0.00;0.00;;;;;8.52;100.00;100331.78;5024768;28;49818;-73
2023/01/15 00:43:32;;;;;;;;;0.25;0.25;;;;;8.83;100.00;100372.56;5027078;28;49809;-71
2023/01/15 00:45:57;;;;;;;;;0.00;0.00;;;;;8.85;100.00;100383.94;5026963;28;49752;-72
2023/01/15 00:48:23;;;;;;;;;1.00;0.00;;;;;8.27;100.00;100296.28;5026342;28;49490;-71
2023/01/15 00:50:48;;;;;;;;;0.00;0.00;;;;;8.46;100.00;100335.13;5027640;28;49484;-68
2023/01/15 00:53:13;;;;;;;;;0.00;0.00;;;;;9.05;100.00;100440.22;5026717;28;49543;-71
2023/01/15 00:55:39;;;;;;;;;1.00;1.00;;;;;8.96;100.00;100400.75;5024804;28;50373;-71
2023/01/15 00:58:04;;;;;;;;;1.50;0.00;;;;;8.53;100.00;100331.78;5021580;28;49733;-71
2023/01/15 01:00:30;;;;;;;;;0.25;0.25;;;;;8.66;100.00;100371.31;5019196;28;49977;-74
2023/01/15 01:02:56;;;;;;;;;1.00;1.00;;;;;8.96;100.00;100412.97;5023706;28;49910;-75
2023/01/15 01:05:21;;;;;;;;;1.00;0.00;;;;;8.97;100.00;100417.34;5014979;28;50018;-72
2023/01/15 01:07:46;;;;;;;;;0.75;0.00;;;;;8.52;100.00;100340.50;5012578;28;50109;-69
2023/01/15 01:10:12;;;;;;;;;0.00;0.00;;;;;9.07;100.00;100422.84;5026960;28;49683;-66
2023/01/15 01:12:37;;;;;;;;;2.00;0.00;;;;;8.60;100.00;100327.59;5026410;28;49313;-72
2023/01/15 01:15:03;;;;;;;;;1.75;1.75;;;;;8.56;100.00;100333.59;5027001;28;50284;-68
2023/01/15 01:17:28;;;;;;;;;0.75;0.75;;;;;8.04;100.00;100248.72;5026271;28;49479;-69
2023/01/15 01:19:54;;;;;;;;;2.00;1.00;;;;;8.76;100.00;100381.13;5027745;28;49306;-68
2023/01/15 01:22:19;;;;;;;;;0.00;0.00;;;;;8.85;100.00;100410.13;5025926;28;49693;-69
2023/01/15 01:24:44;;;;;;;;;2.00;2.00;;;;;8.53;100.00;100357.97;5025668;28;49779;-69
2023/01/15 01:27:10;;;;;;;;;2.75;1.75;;;;;8.68;100.00;100374.84;5002185;28;49883;-73
2023/01/15 01:29:35;;;;;;;;;0.00;0.00;;;;;7.60;100.00;100231.97;5024202;28;49755;-72
2023/01/15 01:32:01;;;;;;;;;0.00;0.00;;;;;8.83;100.00;100397.00;5017350;28;49732;-69
2023/01/15 01:34:26;;;;;;;;;4.00;0.00;;;;;8.55;100.00;100379.78;5020530;28;50925;-75
2023/01/15 01:36:51;;;;;;;;;0.00;0.00;;;;;7.82;100.00;100272.59;5016294;28;50210;-68
2023/01/15 01:39:18;;;;;;;;;0.75;0.00;;;;;8.75;100.00;100416.88;5012535;28;49953;-72
2023/01/15 01:41:45;;;;;;;;;0.75;0.00;;;;;8.60;100.00;100399.13;5016240;28;49643;-70
2023/01/15 01:44:32;;;;;;;;;0.00;0.00;;;;;9.01;100.00;100464.59;5014438;28;50764;-68
2023/01/15 01:47:00;;;;;;;;;0.00;0.00;;;;;8.32;100.00;100332.16;5016830;28;49750;-69
2023/01/15 01:49:25;;;;;;;;;0.00;0.00;;;;;8.99;100.00;100454.94;5017024;28;49679;-69
2023/01/15 01:51:57;;;;;;;;;1.00;0.00;;;;;8.70;100.00;100415.91;5022662;28;49937;-72
2023/01/15 01:54:25;;;;;;;;;1.75;0.00;;;;;8.41;100.00;100346.34;5021002;28;50700;-72
2023/01/15 01:56:52;;;;;;;;;1.25;0.00;;;;;8.48;100.00;100366.53;5015384;28;49792;-72
2023/01/15 01:59:19;;;;;;;;;0.00;0.00;;;;;8.83;100.00;100432.75;5022565;28;49771;-69
2023/01/15 02:01:46;;;;;;;;;3.00;2.00;;;;;8.86;100.00;100451.16;5025600;28;49685;-74
2023/01/15 02:04:12;;;;;;;;;0.00;0.00;;;;;9.05;100.00;100458.56;5003144;28;51371;-73
2023/01/15 02:06:40;;;;;;;;;0.25;0.25;;;;;8.90;100.00;100458.25;5020108;28;49853;-69
2023/01/15 02:09:05;;;;;;;;;2.25;1.00;;;;;9.07;100.00;100484.78;5025767;28;50114;-68
2023/01/15 02:11:33;;;;;;;;;1.00;0.00;;;;;9.01;100.00;100463.72;5025623;28;49414;-74
2023/01/15 02:14:13;;;;;;;;;1.25;1.25;;;;;8.63;100.00;100436.66;5025442;28;50591;-70
2023/01/15 02:16:50;;;;;;;;;0.00;0.00;;;;;8.97;100.00;100494.16;5025544;28;49619;-73
2023/01/15 02:19:33;;;;;;;;;0.00;0.00;;;;;8.96;100.00;100487.16;5024998;28;49453;-69
2023/01/15 02:22:26;;;;;;;;;0.00;0.00;;;;;8.94;100.00;100493.22;5026331;28;49533;-75
2023/01/15 02:25:09;;;;;;;;;0.00;0.00;;;;;8.94;100.00;100498.44;5025531;28;49980;-69
2023/01/15 02:27:37;;;;;;;;;0.00;0.00;;;;;7.88;100.00;100328.47;5020483;28;49460;-68
2023/01/15 02:30:26;;;;;;;;;0.00;0.00;;;;;7.45;100.00;100311.72;5022004;28;49643;-72
2023/01/15 02:32:57;;;;;;;;;0.25;0.25;;;;;8.53;100.00;100459.09;5006494;28;49426;-73
2023/01/15 02:35:47;;;;;;;;;0.00;0.00;;;;;8.85;100.00;100493.88;5022791;28;49577;-74
2023/01/15 02:38:17;;;;;;;;;0.75;0.75;;;;;8.56;100.00;100448.69;5025355;28;49733;-69
2023/01/15 02:40:46;;;;;;;;;0.00;0.00;;;;;8.50;100.00;100470.38;5025262;28;49752;-73
2023/01/15 02:43:14;;;;;;;;;1.00;1.00;;;;;7.85;100.00;100348.44;5024676;28;49530;-68
2023/01/15 02:45:42;;;;;;;;;1.50;0.00;;;;;8.80;100.00;100517.34;5023820;28;49779;-68
2023/01/15 02:48:12;;;;;;;;;1.00;1.00;;;;;8.04;100.00;100375.06;5025352;28;49718;-69
2023/01/15 02:50:43;;;;;;;;;0.00;0.00;;;;;8.25;100.00;100437.47;5025749;28;49973;-72
2023/01/15 02:53:18;;;;;;;;;0.00;0.00;;;;;7.93;100.00;100370.44;5026147;28;49613;-74
2023/01/15 02:55:49;;;;;;;;;0.00;0.00;;;;;8.64;100.00;100485.53;5007537;28;50677;-68
2023/01/15 02:58:24;;;;;;;;;0.00;0.00;;;;;8.76;100.00;100515.47;5025341;28;49777;-70
2023/01/15 03:00:54;;;;;;;;;1.50;0.00;;;;;8.43;100.00;100462.34;5025697;28;49204;-71
2023/01/15 03:03:45;;;;;;;;;0.00;0.00;;;;;8.78;100.00;100554.78;5025367;28;49262;-73
2023/01/15 03:06:21;;;;;;;;;0.00;0.00;;;;;7.08;100.00;100260.28;5025105;28;49875;-69
2023/01/15 03:08:46;;;;;;;;;0.00;0.00;;;;;7.59;100.00;100392.16;5025159;28;49461;-72
2023/01/15 03:11:14;;;;;;;;;0.00;0.00;;;;;8.80;100.00;100547.88;5025679;28;49241;-68
2023/01/15 03:13:57;;;;;;;;;0.00;0.00;;;;;8.48;100.00;100503.44;5025398;28;49618;-71
2023/01/15 03:16:46;;;;;;;;;1.00;0.00;;;;;7.97;100.00;100437.59;5027049;28;49560;-74
2023/01/15 03:19:33;;;;;;;;;1.00;0.75;;;;;8.77;100.00;100550.38;5028743;28;49642;-74
2023/01/15 03:22:06;;;;;;;;;0.25;0.00;;;;;8.37;100.00;100486.59;5028265;28;49403;-68
2023/01/15 03:24:39;;;;;;;;;0.00;0.00;;;;;8.77;100.00;100529.44;5027280;28;49730;-69
2023/01/15 03:27:05;;;;;;;;;0.00;0.00;;;;;8.19;100.00;100452.09;5028746;28;50728;-73
2023/01/15 03:29:38;;;;;;;;;0.00;0.00;;;;;8.28;100.00;100483.72;5028791;28;49720;-69
2023/01/15 03:32:05;;;;;;;;;0.75;0.00;;;;;8.39;100.00;100505.84;5010882;28;49491;-68
2023/01/15 03:34:39;;;;;;;;;0.00;0.00;;;;;8.32;100.00;100511.75;5028036;28;49674;-68
2023/01/15 03:37:04;;;;;;;;;0.00;0.00;;;;;8.50;100.00;100522.72;5027406;28;51039;-74
2023/01/15 03:39:30;;;;;;;;;0.00;0.00;;;;;8.30;100.00;100479.44;5027490;28;49549;-69
2023/01/15 03:42:25;;;;;;;;;0.75;0.00;;;;;8.51;100.00;100529.72;5009521;28;49913;-74
2023/01/15 03:45:03;;;;;;;;;1.25;1.00;;;;;8.58;100.00;100529.00;5028528;28;49533;-69
2023/01/15 03:48:05;;;;;;;;;0.00;0.00;;;;;8.54;100.00;100523.66;5027484;28;50580;-72
2023/01/15 03:50:46;;;;;;;;;0.00;0.00;;;;;8.51;100.00;100518.38;5028360;28;49796;-68
2023/01/15 03:53:21;;;;;;;;;1.00;0.00;;;;;8.04;100.00;100457.84;5027863;28;49270;-71
2023/01/15 03:56:10;;;;;;;;;0.00;0.00;;;;;8.45;100.00;100520.81;5027970;28;49346;-70
2023/01/15 03:58:52;;;;;;;;;0.50;0.00;;;;;7.95;100.00;100447.16;5028186;28;49885;-68
2023/01/15 04:01:30;;;;;;;;;0.00;0.00;;;;;8.04;100.00;100460.47;5028903;28;49515;-69
2023/01/15 04:03:58;;;;;;;;;2.00;0.00;;;;;8.20;100.00;100501.84;5028012;28;49553;-68
2023/01/15 04:06:26;;;;;;;;;1.00;0.00;;;;;7.49;100.00;100404.09;5028309;28;49382;-68
2023/01/15 04:08:54;;;;;;;;;0.00;0.00;;;;;8.13;100.00;100483.34;5026836;28;50007;-69
2023/01/15 04:11:25;;;;;;;;;0.00;0.00;;;;;8.36;100.00;100508.38;5027776;28;49764;-68
2023/01/15 04:13:50;;;;;;;;;1.00;0.25;;;;;8.26;100.00;100485.41;5019849;28;49882;-68
2023/01/15 04:16:24;;;;;;;;;0.00;0.00;;;;;8.14;100.00;100469.44;5021484;28;49932;-69
2023/01/15 04:18:49;;;;;;;;;0.00;0.00;;;;;8.12;100.00;100468.50;5027362;28;49842;-68
2023/01/15 04:21:14;;;;;;;;;0.00;0.00;;;;;7.10;100.00;100342.09;5024010;28;49580;-68
2023/01/15 04:23:40;;;;;;;;;0.00;0.00;;;;;7.63;100.00;100404.50;5020892;28;49813;-68
2023/01/15 04:26:06;;;;;;;;;0.25;0.00;;;;;7.60;100.00;100386.97;5021594;28;49614;-68
2023/01/15 04:28:32;;;;;;;;;0.00;0.00;;;;;7.75;100.00;100410.03;5018667;28;49829;-68
2023/01/15 04:30:58;;;;;;;;;0.00;0.00;;;;;7.67;100.00;100402.00;5025373;28;49647;-72
2023/01/15 04:33:24;;;;;;;;;0.00;0.00;;;;;8.27;100.00;100531.66;5027042;28;49623;-71
2023/01/15 04:35:49;;;;;;;;;0.00;0.00;;;;;8.15;100.00;100508.69;5009370;28;49771;-70
2023/01/15 04:38:16;;;;;;;;;0.50;0.00;;;;;7.69;100.00;100420.31;5027215;28;49719;-70
2023/01/15 04:46:10;;;;;;;;;0.00;0.00;;;;;7.61;100.00;100438.38;5024220;28;49831;-68
2023/01/15 04:48:38;;;;;;;;;0.50;0.00;;;;;7.88;100.00;100500.97;5027323;28;50060;-69
2023/01/15 04:51:05;;;;;;;;;1.75;0.00;;;;;7.50;100.00;100444.16;5026808;28;49797;-72
2023/01/15 04:53:31;;;;;;;;;0.25;0.00;;;;;8.16;100.00;100552.28;5023882;28;49758;-74
2023/01/15 04:56:01;;;;;;;;;1.00;0.00;;;;;7.88;100.00;100508.81;5026027;28;49606;-68
2023/01/15 04:58:26;;;;;;;;;0.00;0.00;;;;;8.01;100.00;100534.47;5022830;28;49727;-73
2023/01/15 05:00:52;;;;;;;;;1.00;0.00;;;;;7.70;100.00;100483.06;5024698;28;49408;-71
2023/01/15 05:03:17;;;;;;;;;0.00;0.00;;;;;7.97;100.00;100532.59;5026446;28;49828;-72
2023/01/15 05:05:42;;;;;;;;;1.00;0.00;;;;;7.36;100.00;100438.56;5026662;28;49678;-73
2023/01/15 05:08:08;;;;;;;;;0.00;0.00;;;;;8.06;100.00;100558.09;5025411;28;50707;-70
2023/01/15 05:10:33;;;;;;;;;0.00;0.00;;;;;7.19;100.00;100417.19;5028471;28;49331;-72
2023/01/15 05:12:59;;;;;;;;;0.00;0.00;;;;;7.73;100.00;100530.19;5026018;28;49850;-73
2023/01/15 05:15:24;;;;;;;;;0.00;0.00;;;;;7.93;100.00;100564.72;5026625;28;49740;-68
2023/01/15 05:17:49;;;;;;;;;1.00;0.00;;;;;7.64;100.00;100503.81;5026369;28;49779;-71
2023/01/15 05:20:15;;;;;;;;;0.00;0.00;;;;;7.57;100.00;100514.03;5009060;28;49874;-70
2023/01/15 05:22:40;;;;;;;;;0.00;0.00;;;;;7.14;100.00;100424.91;5026484;28;49649;-68
2023/01/15 05:25:06;;;;;;;;;0.00;0.00;;;;;7.70;100.00;100556.22;5026879;28;49307;-70
2023/01/15 05:27:31;;;;;;;;;0.00;0.00;;;;;7.92;100.00;100559.47;5018986;28;50550;-72
2023/01/15 05:29:56;;;;;;;;;0.00;0.00;;;;;7.81;100.00;100535.63;5029427;28;49526;-72
2023/01/15 05:32:22;;;;;;;;;0.00;0.00;;;;;7.65;100.00;100509.91;5026613;28;49476;-74
2023/01/15 05:34:47;;;;;;;;;0.00;0.00;;;;;7.11;100.00;100423.91;5026489;28;49411;-68
2023/01/15 05:37:12;;;;;;;;;0.00;0.00;;;;;7.30;100.00;100457.53;5026604;28;57489;-73
2023/01/15 05:39:38;;;;;;;;;0.00;0.00;;;;;7.56;100.00;100507.91;5026571;28;49843;-71
2023/01/15 05:42:03;;;;;;;;;0.00;0.00;;;;;7.77;100.00;100551.19;5027197;28;49352;-69
2023/01/15 05:44:29;;;;;;;;;0.00;0.00;;;;;7.62;100.00;100528.97;5008553;28;49713;-68
2023/01/15 05:46:57;;;;;;;;;0.00;0.00;;;;;7.53;100.00;100504.31;5026678;28;49754;-72
2023/01/15 05:49:26;;;;;;;;;1.00;1.00;;;;;7.70;100.00;100529.19;5026625;28;49879;-70
2023/01/15 05:51:53;;;;;;;;;0.00;0.00;;;;;7.30;100.00;100470.59;5026469;28;49559;-69
2023/01/15 05:54:24;;;;;;;;;0.50;0.00;;;;;7.92;100.00;100589.09;5027476;28;49617;-68
2023/01/15 05:56:50;;;;;;;;;0.50;0.00;;;;;7.85;100.00;100578.41;5026075;28;49583;-68
2023/01/15 05:59:19;;;;;;;;;0.00;0.00;;;;;7.79;100.00;100563.44;5025839;28;49680;-69
2023/01/15 06:01:44;;;;;;;;;0.00;0.00;;;;;7.81;100.00;100568.69;5026596;28;49854;-72
2023/01/15 06:04:13;;;;;;;;;1.00;0.00;;;;;7.75;100.00;100561.59;5025703;28;49476;-71
2023/01/15 06:06:39;;;;;;;;;0.00;0.00;;;;;7.45;100.00;100522.41;5026161;28;50373;-73
2023/01/15 06:09:04;;;;;;;;;0.00;0.00;;;;;7.15;100.00;100476.25;5025189;28;49563;-73
2023/01/15 06:11:31;;;;;;;;;0.00;0.00;;;;;7.56;100.00;100564.50;5023435;28;49670;-69
2023/01/15 06:13:57;;;;;;;;;0.00;0.00;;;;;7.12;100.00;100497.03;5023409;28;49450;-69
2023/01/15 06:16:23;;;;;;;;;0.00;0.00;;;;;7.86;100.00;100638.56;5020643;28;50913;-73
2023/01/15 06:18:49;;;;;;;;;0.50;0.00;;;;;7.44;100.00;100565.03;5020060;28;49713;-68
2023/01/15 06:21:14;;;;;;;;;0.00;0.00;;;;;7.41;100.00;100564.91;5017715;28;49684;-69
2023/01/15 06:23:41;;;;;;;;;0.00;0.00;;;;;7.77;100.00;100630.47;5022013;28;49802;-69
2023/01/15 06:26:17;;;;;;;;;0.00;0.00;;;;;7.59;100.00;100615.09;5022795;28;50268;-71
2023/01/15 06:28:43;;;;;;;;;0.00;0.00;;;;;7.31;100.00;100549.81;5025621;28;49676;-73
2023/01/15 06:31:12;;;;;;;;;0.00;0.00;;;;;7.18;100.00;100533.78;5025857;28;49378;-68
2023/01/15 06:33:38;;;;;;;;;0.00;0.00;;;;;7.53;100.00;100603.56;5025414;28;49593;-74
2023/01/15 06:36:05;;;;;;;;;1.00;0.00;;;;;7.71;100.00;100661.63;5025228;28;49766;-70
2023/01/15 06:38:31;;;;;;;;;0.00;0.00;;;;;7.50;100.00;100627.88;5025766;28;49430;-71
2023/01/15 06:41:01;;;;;;;;;1.50;1.00;;;;;7.69;100.00;100681.59;5024956;28;49805;-71
2023/01/15 06:48:55;;;;;;;;;0.00;0.00;;;;;6.75;100.00;100549.78;5025027;28;49765;-68
2023/01/15 06:51:20;;;;;;;;;0.00;0.00;;;;;6.72;100.00;100547.09;5027482;28;49439;-72
2023/01/15 06:53:46;;;;;;;;;0.00;0.00;;;;;7.45;100.00;100700.88;5029916;28;49365;-69
2023/01/15 06:56:14;;;;;;;;;0.00;0.00;;;;;7.09;100.00;100621.34;5028102;28;49553;-71
2023/01/15 06:58:41;;;;;;;;;0.00;0.00;;;;;6.72;100.00;100572.28;5027936;28;49677;-74
2023/01/15 07:01:09;;;;;;;;;2.00;0.00;;;;;6.87;100.00;100627.59;5028706;28;49335;-74
2023/01/15 07:03:34;;;;;;;;;0.00;0.00;;;;;7.20;100.00;100693.06;5029389;28;49613;-70
2023/01/15 07:06:08;;;;;;;;;0.00;0.00;;;;;6.61;100.00;100605.84;5028658;28;49796;-68
2023/01/15 07:08:34;;;;;;;;;0.00;0.00;;;;;7.03;100.00;100665.53;5028335;28;49604;-71
2023/01/15 07:11:05;;;;;;;;;0.00;0.00;;;;;6.95;100.00;100666.97;5026718;28;49494;-74
2023/01/15 07:13:31;;;;;;;;;0.25;0.25;;;;;7.11;100.00;100691.03;5021710;28;49561;-70
2023/01/15 07:16:01;;;;;;;;;0.00;0.00;;;;;4.87;100.00;100359.97;5019528;28;49805;-71
2023/01/15 07:18:30;;;;;;;;;0.25;0.00;;;;;6.57;100.00;100622.22;5018581;28;49639;-68
2023/01/15 07:20:56;;;;;;;;;0.00;0.00;;;;;7.06;100.00;100707.41;5015635;28;49879;-69
2023/01/15 07:23:23;;;;;;;;;0.00;0.00;;;;;6.68;100.00;100654.78;5015236;28;49567;-73
2023/01/15 07:25:51;;;;;;;;;0.00;0.00;;;;;6.96;100.00;100723.59;5022870;28;49820;-73
2023/01/15 07:28:17;;;;;;;;;0.00;0.00;;;;;6.88;100.00;100712.88;5016601;28;49837;-69
2023/01/15 07:30:42;;;;;;;;;0.00;0.00;;;;;6.80;100.00;100709.09;5018101;28;49838;-68
2023/01/15 07:33:07;;;;;;;;;0.00;0.00;;;;;6.75;100.00;100701.09;5020185;28;49815;-75
2023/01/15 07:35:35;;;;;;;;;0.00;0.00;;;;;6.80;100.00;100715.22;5023106;28;49828;-69
2023/01/15 07:38:01;;;;;;;;;0.00;0.00;;;;;6.56;100.00;100675.19;5028111;28;49411;-69
2023/01/15 07:40:26;;;;;;;;;0.00;0.00;;;;;6.83;100.00;100717.91;5028297;28;49361;-73
2023/01/15 07:51:08;;;;;;;;;0.00;0.00;;;;;6.09;100.00;100598.81;5027691;28;49698;-70
2023/01/15 07:53:33;;;;;;;;;0.75;0.00;;;;;6.01;100.00;100592.44;5028034;28;49413;-71
2023/01/15 07:55:59;;;;;;;;;0.00;0.00;;;;;6.53;100.00;100675.09;5027551;28;49862;-66
2023/01/15 07:58:24;;;;;;;;;5.00;1.00;;;;;6.64;100.00;100706.78;5024644;28;49947;-68
2023/01/15 08:00:49;;;;;;;;;0.00;0.00;;;;;6.23;100.00;100622.75;5027960;28;49425;-69
2023/01/15 08:03:15;;;;;;;;;1.00;0.00;;;;;6.39;100.00;100645.94;5021415;28;49791;-68
2023/01/15 08:05:40;;;;;;;;;0.00;0.00;;;;;6.10;100.00;100597.97;5024973;28;50438;-68
2023/01/15 08:08:12;;;;;;;;;1.00;0.00;;;;;6.88;100.00;100732.03;5027304;28;49704;-69
2023/01/15 08:15:11;;;;;;;;;0.00;0.00;;;;;6.60;100.00;100684.94;5024340;28;49592;-66
2023/01/15 08:16:07;;;;;;;;;0.50;0.50;;;;;6.75;100.00;100708.94;5025936;28;49742;-73
2023/01/15 08:18:32;;;;;;;;;0.00;0.00;;;;;6.62;100.00;100683.25;5026980;28;49566;-71
2023/01/15 08:20:57;;;;;;;;;2.00;1.00;;;;;6.74;100.00;100703.66;5026787;28;56159;-73
2023/01/15 08:23:23;;;;;;;;;0.00;0.00;;;;;6.53;100.00;100675.09;5009672;28;50868;-67
2023/01/15 08:25:48;;;;;;;;;1.00;0.00;;;;;6.55;100.00;100670.81;5027874;28;51297;-66
2023/01/15 08:28:14;;;;;;;;;1.25;0.25;;;;;6.87;100.00;100739.81;5026772;28;60035;-67
2023/01/15 08:30:39;;;;;;;;;0.00;0.00;;;;;6.89;100.00;100738.13;5026545;28;50172;-72
2023/01/15 08:33:05;;;;;;;;;1.75;1.00;;;;;6.15;100.00;100600.72;5028233;28;49197;-69
2023/01/15 08:35:31;;;;;;;;;1.75;0.00;;;;;6.54;100.00;100676.88;5027266;28;50607;-71
2023/01/15 08:37:56;;;;;;;;;0.75;0.75;;;;;6.67;100.00;100691.25;5028224;28;49799;-72
2023/01/15 08:40:22;;;;;;;;;0.00;0.00;;;;;6.80;100.00;100717.81;5026729;28;55721;-70
2023/01/15 08:42:47;;;;;;;;;0.00;0.00;;;;;6.68;100.00;100683.50;5009334;28;49791;-67
2023/01/15 08:45:13;;;;;;;;;1.00;0.00;;;;;6.95;100.00;100734.84;5009314;28;54830;-69
2023/01/15 08:47:38;;;;;;;;;0.00;0.00;;;;;6.74;100.00;100695.84;5025646;28;49567;-67
2023/01/15 08:50:06;;;;;;;;;1.50;0.00;;;;;7.08;100.00;100737.94;5026402;28;49663;-68
2023/01/15 08:52:31;;;;;;;;;0.50;0.50;;;;;6.80;100.00;100677.78;5014603;28;49773;-69
2023/01/15 08:54:57;;;;;;;;;1.25;0.75;;;;;6.90;100.00;100705.97;5015685;28;50210;-70
2023/01/15 08:57:22;;;;;;;;;0.00;0.00;;;;;5.63;100.00;100473.78;5014371;28;49977;-70
2023/01/15 08:59:47;;;;;;;;;1.00;1.00;;;;;6.39;100.00;100598.13;5013456;28;54424;-69
2023/01/15 09:02:14;;;;;;;;;3.00;0.50;;;;;6.38;100.00;100581.59;5010831;28;49858;-71
2023/01/15 09:04:39;;;;;;;;;7.00;7.00;;;;;6.84;100.00;100667.50;5014607;28;49975;-70
2023/01/15 09:07:05;;;;;;;;;1.00;1.00;;;;;7.18;100.00;100724.38;5012378;28;49982;-69
2023/01/15 09:09:30;;;;;;;;;1.75;1.00;;;;;6.86;100.00;100665.84;5012844;28;49822;-69
2023/01/15 09:11:55;;;;;;;;;0.75;0.75;;;;;7.21;100.00;100710.50;5011971;28;49947;-69
2023/01/15 09:14:20;;;;;;;;;1.00;1.00;;;;;7.16;100.00;100701.66;5016565;28;50502;-71
2023/01/15 09:16:46;;;;;;;;;1.75;1.00;;;;;7.11;100.00;100675.38;5015042;28;49807;-70
2023/01/15 09:19:11;;;;;;;;;0.25;0.25;;;;;6.69;100.00;100588.75;5022620;28;49555;-69
2023/01/15 09:21:36;;;;;;;;;0.00;0.00;;;;;7.15;100.00;100673.78;5012248;28;50504;-70
2023/01/15 09:24:03;;;;;;;;;1.00;1.00;;;;;7.46;100.00;100701.78;5016389;28;51218;-69
2023/01/15 09:26:36;;;;;;;;;1.00;0.75;;;;;7.66;100.00;100745.09;5017344;28;49974;-69
2023/01/15 09:29:05;;;;;;;;;0.50;0.50;;;;;7.18;100.00;100651.25;5013519;28;49790;-69
2023/01/15 09:31:31;;;;;;;;;0.50;0.50;;;;;7.69;100.00;100736.47;5015653;28;49724;-74
2023/01/15 09:33:58;;;;;;;;;1.00;0.00;;;;;7.13;100.00;100633.66;5015295;28;50850;-69
2023/01/15 09:36:27;;;;;;;;;5.00;3.75;;;;;7.46;100.00;100697.44;5013191;28;49696;-68
2023/01/15 09:38:53;;;;;;;;;1.25;1.25;;;;;7.85;100.00;100730.00;5010709;28;49980;-68
2023/01/15 09:44:43;;;;;;;;;1.00;0.00;;;;;7.88;100.00;100737.94;5008505;28;49901;-69
2023/01/15 09:47:43;;;;;;;;;1.75;0.00;;;;;7.28;100.00;100635.91;4973604;28;49928;-76
2023/01/15 09:50:29;;;;;;;;;0.00;0.00;;;;;7.94;100.00;100748.59;5010205;28;49717;-75
2023/01/15 09:53:36;;;;;;;;;1.00;1.00;;;;;7.93;100.00;100744.22;5011217;28;49979;-70
2023/01/15 09:56:03;;;;;;;;;0.00;0.00;;;;;7.95;100.00;100738.19;4988575;28;51354;-72
2023/01/15 09:58:49;;;;;;;;;2.00;2.00;;;;;7.91;100.00;100757.22;5012696;28;49945;-71
2023/01/15 10:01:24;;;;;;;;;1.25;0.25;;;;;7.89;100.00;100729.25;5020590;28;49624;-71
2023/01/15 10:04:11;;;;;;;;;0.00;0.00;;;;;8.03;100.00;100754.09;5005507;28;49518;-73
2023/01/15 10:07:17;;;;;;;;;2.00;2.00;;;;;8.06;100.00;100753.31;5005996;28;51703;-76
2023/01/15 10:09:52;;;;;;;;;0.00;0.00;;;;;7.78;100.00;100701.91;4978884;28;49891;-77
2023/01/15 10:12:35;;;;;;;;;0.00;0.00;;;;;8.00;100.00;100720.88;5018274;28;49796;-69
2023/01/15 10:15:09;;;;;;;;;0.00;0.00;;;;;8.22;100.00;100748.59;5017257;28;50001;-71
2023/01/15 10:17:52;;;;;;;;;2.50;0.50;;;;;8.01;100.00;100713.97;5014722;28;49888;-71
2023/01/15 10:20:48;;;;;;;;;0.00;0.00;;;;;8.24;100.00;100753.88;5019013;28;49966;-73
2023/01/15 10:23:36;;;;;;;;;0.75;0.75;;;;;8.29;100.00;100744.41;5029216;28;49890;-68
2023/01/15 10:26:29;;;;;;;;;1.75;1.00;;;;;8.34;100.00;100750.69;5021783;28;49309;-71
2023/01/15 10:29:18;;;;;;;;;0.00;0.00;;;;;8.22;100.00;100726.78;5024896;28;50354;-71
2023/01/15 10:32:20;;;;;;;;;3.00;1.00;;;;;8.02;100.00;100681.75;5025068;28;49724;-80
2023/01/15 10:34:51;;;;;;;;;5.00;1.00;;;;;8.49;100.00;100742.41;5024657;28;49458;-70
2023/01/15 10:37:30;;;;;;;;;0.00;0.00;;;;;8.55;100.00;100756.56;5007898;28;49475;-71
2023/01/15 10:40:41;;;;;;;;;0.75;0.75;;;;;8.51;100.00;100731.16;5006597;28;51564;-68
2023/01/15 10:43:24;;;;;;;;;3.00;1.00;;;;;8.62;100.00;100735.81;5003689;28;49480;-70
2023/01/15 10:46:00;;;;;;;;;1.00;0.00;;;;;8.66;100.00;100727.19;5021672;28;49483;-69
2023/01/15 10:48:44;;;;;;;;;1.00;1.00;;;;;8.44;100.00;100713.50;5026330;28;49398;-67
2023/01/15 10:51:26;;;;;;;;;0.00;0.00;;;;;8.86;100.00;100753.06;5008611;28;51907;-68
2023/01/15 10:54:04;;;;;;;;;1.50;1.00;;;;;8.98;100.00;100749.91;5019383;28;49748;-72
2023/01/15 10:56:36;;;;;;;;;2.00;1.25;;;;;8.94;100.00;100737.56;5007663;28;49443;-72
2023/01/15 10:59:10;;;;;;;;;2.75;1.00;;;;;9.07;100.00;100755.41;5023821;28;49470;-70
2023/01/15 11:01:38;;;;;;;;;2.75;1.00;;;;;9.18;100.00;100740.84;5022939;28;49691;-74
2023/01/15 11:04:04;;;;;;;;;2.50;0.00;;;;;9.30;100.00;100749.88;5024409;28;49209;-74
2023/01/15 11:06:31;;;;;;;;;1.00;1.00;;;;;9.25;100.00;100720.03;5024126;28;50144;-71
2023/01/15 11:08:58;;;;;;;;;1.00;0.00;;;;;9.34;100.00;100728.13;5025665;28;49629;-72
2023/01/15 11:20:29;;;;;;;;;1.00;1.00;;;;;9.23;100.00;100716.50;5024600;28;49367;-73
2023/01/15 11:22:57;;;;;;;;;1.00;0.00;;;;;9.22;100.00;100699.00;5022175;28;49831;-78
2023/01/15 11:25:30;;;;;;;;;1.00;1.00;;;;;9.15;100.00;100706.72;5025562;28;49469;-73
2023/01/15 11:27:58;;;;;;;;;1.00;0.00;;;;;9.22;100.00;100712.13;5022925;28;49457;-75
2023/01/15 11:30:38;;;;;;;;;0.00;0.00;;;;;9.38;100.00;100720.41;5025633;28;49490;-72
2023/01/15 11:33:19;;;;;;;;;1.00;0.00;;;;;9.44;100.00;100711.78;5023615;28;50355;-69
2023/01/15 11:35:57;;;;;;;;;2.50;0.00;;;;;9.43;100.00;100710.03;5023203;28;49449;-77
2023/01/15 11:38:28;;;;;;;;;1.75;0.50;;;;;9.34;100.00;100712.41;5017638;28;49829;-78
2023/01/15 11:41:01;;;;;;;;;0.00;0.00;;;;;9.34;100.00;100699.31;5017048;28;49784;-73
2023/01/15 11:50:42;;;;;;;;;1.00;0.50;;;;;9.36;100.00;100718.56;5014831;28;49794;-69
2023/01/15 11:52:01;;;;;;;;;0.00;0.00;;;;;9.36;100.00;100693.28;5025157;28;49625;-72
2023/01/15 11:54:31;;;;;;;;;0.25;0.25;;;;;9.43;100.00;100678.59;5022736;28;50793;-72
2023/01/15 11:56:57;;;;;;;;;1.25;1.00;;;;;9.63;100.00;100686.91;5022417;28;49637;-77
2023/01/15 11:59:24;;;;;;;;;0.00;0.00;;;;;9.56;100.00;100641.34;5015575;28;49842;-82
2023/01/15 12:01:56;;;;;;;;;0.50;0.25;;;;;9.74;100.00;100652.22;5021336;28;50046;-78
2023/01/15 12:04:29;;;;;;;;;0.25;0.25;;;;;10.01;100.00;100685.16;5020202;28;50863;-78
2023/01/15 12:06:54;;;;;;;;;1.00;0.00;;;;;10.09;100.00;100690.56;5026269;28;49401;-76
2023/01/15 12:09:51;;;;;;;;;1.00;0.00;;;;;10.20;100.00;100683.81;5008361;28;49671;-77
2023/01/15 12:12:19;;;;;;;;;2.00;1.00;;;;;10.27;100.00;100694.50;5025518;28;49373;-80
2023/01/15 12:15:29;;;;;;;;;0.00;0.00;;;;;10.14;100.00;100644.34;5028355;28;49820;-75
2023/01/15 12:18:24;;;;;;;;;0.00;0.00;;;;;10.31;100.00;100656.09;4996636;28;49727;-75
2023/01/15 12:21:01;;;;;;;;;2.00;1.00;;;;;10.47;100.00;100658.16;5011970;28;49836;-70
2023/01/15 12:24:00;;;;;;;;;1.25;0.00;;;;;10.51;100.00;100651.22;5012018;28;49777;-73
2023/01/15 12:26:27;;;;;;;;;0.00;0.00;;;;;10.45;100.00;100636.28;4990802;28;52384;-72